»·PEaware :: N736PM KHLN-KGEG

N736PM :: KHLN-KGEG

FLIGHT INFORMATION

Flight Status: Arrived
Operator: Privately registered:
United States
More flights under this callsign
Pilot: Paul A. (20189)
Aircraft: BOEING 737-600
(B736)
More flights by this aircraft type
Origin: KHLN Helena Regl
United States
Destination: KGEG Spokane Intl
United States
More flights between these airports :: More routes between these airports
Route: +HLN4 HLN MSO INE MLP HILIE2
File this flight plan on PilotEdge
Remarks:
Altitude:
(Current/Filed)
24,000ft
Speed:
(Current/Filed)
455kts
Departed: 16-Oct-18 06:10 PM
Arrived: 16-Oct-18 06:57 PM
Distance/Time
Traveled:
234nm/0:47
Distance/Time
To Go:
Arrived

Flight Plot

Page will automatically refresh every two minutes.

Flight plan parsing failed; only flown route is shown


Map Options




Map Legend


Flown Route
Filed Route
Departure Airport
Arrival Airport
Navaid (VOR, NDB)
Fix

Horizontal Profiles

Position Reports

Time Latitude Longitude Heading Altitude Ground
Speed
16-Oct-18 17:50 46.609821 -111.989935 43 3885ft 0kts
16-Oct-18 17:51 46.609821 -111.989935 43 3885ft 0kts
16-Oct-18 17:52 46.609821 -111.989935 43 3885ft 0kts
16-Oct-18 17:53 46.609821 -111.989935 43 3885ft 0kts
16-Oct-18 17:54 46.609821 -111.989935 43 3885ft 0kts
16-Oct-18 17:55 46.609821 -111.989935 43 3885ft 0kts
16-Oct-18 17:56 46.609821 -111.989935 43 3885ft 0kts
16-Oct-18 17:57 46.609821 -111.989935 43 3885ft 0kts
16-Oct-18 17:58 46.609821 -111.989935 43 3885ft 0kts
16-Oct-18 17:59 46.609821 -111.989935 43 3885ft 0kts
16-Oct-18 18:00 46.609821 -111.989935 43 3885ft 0kts
16-Oct-18 18:01 46.609821 -111.989935 43 3885ft 0kts
16-Oct-18 18:02 46.609821 -111.989935 43 3885ft 0kts
16-Oct-18 18:03 46.609821 -111.989935 43 3885ft 0kts
16-Oct-18 18:04 46.609821 -111.989935 43 3885ft 0kts
16-Oct-18 18:05 46.609821 -111.989935 43 3885ft 0kts
16-Oct-18 18:06 46.609821 -111.989935 43 3885ft 0kts
16-Oct-18 18:07 46.609821 -111.989935 43 3885ft 0kts
16-Oct-18 18:08 46.609826 -111.989748 106 3885ft 7kts
16-Oct-18 18:09 46.609862 -111.994955 282 3885ft 14kts
16-Oct-18 18:10 46.609168 -111.997240 190 3885ft 0kts
16-Oct-18 18:11 46.608316 -111.996893 103 3885ft 4kts
16-Oct-18 18:12 46.601941 -111.954630 102 4764ft 221kts
16-Oct-18 18:13 46.637533 -111.914820 330 9055ft 274kts
16-Oct-18 18:14 46.713324 -111.984835 345 9003ft 302kts
16-Oct-18 18:15 46.789769 -112.014977 312 8980ft 283kts
16-Oct-18 18:16 46.765993 -112.108005 194 12581ft 320kts
16-Oct-18 18:17 46.697596 -112.042215 120 15525ft 320kts
16-Oct-18 18:18 46.622657 -111.953311 171 18225ft 397kts
16-Oct-18 18:19 46.527211 -112.018824 241 22072ft 402kts
16-Oct-18 18:20 46.528669 -112.173657 293 24412ft 402kts
16-Oct-18 18:21 46.569027 -112.327129 292 24448ft 412kts
16-Oct-18 18:22 46.612343 -112.491776 292 24448ft 444kts
16-Oct-18 18:23 46.655991 -112.659570 292 24435ft 443kts
16-Oct-18 18:24 46.700035 -112.827707 292 24455ft 443kts
16-Oct-18 18:25 46.736417 -112.967577 292 24454ft 443kts
16-Oct-18 18:26 46.790217 -113.161510 293 24451ft 442kts
16-Oct-18 18:27 46.828922 -113.299957 293 24452ft 443kts
16-Oct-18 18:28 46.875309 -113.466620 293 24451ft 442kts
16-Oct-18 18:29 46.922059 -113.633230 293 24450ft 442kts
16-Oct-18 18:30 46.968255 -113.800241 293 24450ft 442kts
16-Oct-18 18:31 47.021724 -113.995491 293 24450ft 442kts
16-Oct-18 18:32 47.059754 -114.135413 292 24449ft 443kts
16-Oct-18 18:33 47.105077 -114.303307 292 24452ft 442kts
16-Oct-18 18:34 47.150117 -114.471329 292 24455ft 442kts
16-Oct-18 18:35 47.194920 -114.639645 292 24461ft 442kts
16-Oct-18 18:36 47.239562 -114.808529 292 24468ft 442kts
16-Oct-18 18:37 47.283797 -114.977028 291 24476ft 442kts
16-Oct-18 18:38 47.328061 -115.146771 291 24485ft 443kts
16-Oct-18 18:39 47.372227 -115.315781 291 24492ft 443kts
16-Oct-18 18:40 47.415838 -115.485656 291 24497ft 442kts
16-Oct-18 18:41 47.453871 -115.658274 279 24500ft 442kts
16-Oct-18 18:42 47.467879 -115.837419 276 24497ft 424kts
16-Oct-18 18:43 47.478492 -116.006292 276 24061ft 401kts
16-Oct-18 18:44 47.488116 -116.168140 276 20975ft 389kts
16-Oct-18 18:45 47.498078 -116.324901 276 17937ft 377kts
16-Oct-18 18:46 47.506710 -116.477593 276 14944ft 367kts
16-Oct-18 18:47 47.514734 -116.626094 276 12462ft 344kts
16-Oct-18 18:48 47.535411 -116.749831 296 11348ft 293kts
16-Oct-18 18:49 47.567071 -116.853496 295 10168ft 255kts
16-Oct-18 18:50 47.594768 -116.946759 294 9097ft 245kts
16-Oct-18 18:51 47.613772 -117.041844 271 8054ft 241kts
16-Oct-18 18:52 47.614653 -117.135918 274 7066ft 208kts
16-Oct-18 18:53 47.615422 -117.218093 271 6175ft 184kts
16-Oct-18 18:54 47.615663 -117.290665 271 5388ft 171kts
16-Oct-18 18:55 47.615939 -117.361242 271 4543ft 169kts
16-Oct-18 18:56 47.616222 -117.424173 270 3717ft 137kts
16-Oct-18 18:57 47.616536 -117.477784 270 3022ft 128kts
16-Oct-18 18:58 47.616980 -117.529428 269 2358ft 78kts
16-Oct-18 18:59 47.615526 -117.532287 179 2358ft 24kts

Navigation Log

Ident Type
Flight plan parsing failed, navigation log unavailable